createdAt,value
2018-12-26T00:01:02.947Z,75.13
2018-12-26T00:03:32.845Z,75.20
2018-12-26T00:06:02.605Z,74.47
2018-12-26T00:08:32.605Z,74.47
2018-12-26T00:11:02.381Z,74.86
2018-12-26T00:13:32.705Z,74.82
2018-12-26T00:16:02.518Z,75.09
2018-12-26T00:18:32.733Z,74.31
2018-12-26T00:21:02.503Z,74.31
2018-12-26T00:23:32.368Z,74.59
2018-12-26T00:26:02.159Z,74.90
2018-12-26T00:28:32.263Z,74.69
2018-12-26T00:31:02.324Z,74.93
2018-12-26T00:33:32.437Z,75.14
2018-12-26T00:36:02.552Z,74.70
2018-12-26T00:38:32.601Z,74.60
2018-12-26T00:41:02.429Z,74.85
2018-12-26T00:43:32.725Z,74.55
2018-12-26T00:46:02.634Z,74.88
2018-12-26T00:48:32.970Z,75.08
2018-12-26T00:51:03.134Z,74.87
2018-12-26T00:53:33.375Z,74.61
2018-12-26T00:56:10.365Z,74.75
2018-12-26T00:58:34.900Z,74.75
2018-12-26T01:01:04.943Z,74.65
2018-12-26T01:03:34.893Z,74.59
2018-12-26T01:06:04.917Z,74.63
2018-12-26T01:08:35.042Z,74.62
2018-12-26T01:11:04.939Z,74.53
2018-12-26T01:13:35.357Z,73.87
2018-12-26T01:16:05.085Z,74.13
2018-12-26T01:18:35.942Z,74.20
2018-12-26T01:21:05.973Z,74.16
2018-12-26T01:23:35.776Z,74.33
2018-12-26T01:26:06.674Z,74.28
2018-12-26T01:28:36.466Z,74.28
2018-12-26T01:31:06.230Z,74.11
2018-12-26T01:33:36.535Z,74.37
2018-12-26T01:36:06.339Z,74.64
2018-12-26T01:38:36.441Z,73.96
2018-12-26T01:41:06.508Z,74.22
2018-12-26T01:43:36.392Z,74.17
2018-12-26T01:46:06.485Z,74.40
2018-12-26T01:48:36.662Z,74.37
2018-12-26T01:51:06.392Z,74.19
2018-12-26T01:53:36.920Z,74.10
2018-12-26T01:56:06.708Z,74.18
2018-12-26T01:58:36.945Z,74.17
2018-12-26T02:01:07.014Z,74.37
2018-12-26T02:03:36.818Z,74.17
2018-12-26T02:06:06.566Z,74.01
2018-12-26T02:08:36.598Z,73.97
2018-12-26T02:11:06.713Z,74.20
2018-12-26T02:13:36.546Z,74.03
2018-12-26T02:16:06.300Z,74.12
2018-12-26T02:18:36.206Z,74.30
2018-12-26T02:21:05.958Z,74.07
2018-12-26T02:23:35.720Z,74.07
2018-12-26T02:26:05.483Z,74.00
2018-12-26T02:28:35.310Z,73.83
2018-12-26T02:31:05.477Z,73.93
2018-12-26T02:33:35.359Z,74.08
2018-12-26T02:36:05.342Z,74.26
2018-12-26T02:38:35.390Z,74.22
2018-12-26T02:41:05.742Z,73.83
2018-12-26T02:43:36.147Z,74.00
2018-12-26T02:46:06.495Z,73.52
2018-12-26T02:48:36.592Z,73.83
2018-12-26T02:51:06.597Z,74.02
2018-12-26T02:53:36.342Z,74.17
2018-12-26T02:56:06.526Z,73.71
2018-12-26T02:58:37.244Z,74.06
2018-12-26T03:01:07.084Z,74.29
2018-12-26T03:03:36.820Z,74.30
2018-12-26T03:06:06.574Z,74.13
2018-12-26T03:08:36.664Z,74.24
2018-12-26T03:11:06.437Z,74.26
2018-12-26T03:13:36.231Z,74.21
2018-12-26T03:16:06.301Z,74.46
2018-12-26T03:18:36.984Z,74.26
2018-12-26T03:21:06.746Z,74.53
2018-12-26T03:23:36.708Z,74.39
2018-12-26T03:26:06.487Z,74.80
2018-12-26T03:28:36.252Z,74.85
2018-12-26T03:31:05.996Z,74.85
2018-12-26T03:33:35.861Z,74.95
2018-12-26T03:36:05.951Z,75.09
2018-12-26T03:38:37.634Z,75.18
2018-12-26T03:41:07.459Z,75.21
2018-12-26T03:43:37.528Z,75.30
2018-12-26T03:46:07.270Z,75.25
2018-12-26T03:48:37.142Z,75.31
2018-12-26T03:51:06.874Z,75.67
2018-12-26T03:53:36.643Z,75.62
2018-12-26T03:56:06.482Z,75.82
2018-12-26T03:58:36.545Z,76.16
2018-12-26T04:01:06.263Z,76.23
2018-12-26T04:03:36.130Z,76.18
2018-12-26T04:06:08.692Z,76.67
2018-12-26T04:08:38.887Z,76.54
2018-12-26T04:11:10.865Z,76.71
2018-12-26T04:13:40.601Z,76.52
2018-12-26T04:16:10.363Z,76.67
2018-12-26T04:18:40.189Z,76.67
2018-12-26T04:21:09.938Z,76.69
2018-12-26T04:23:40.108Z,76.80
2018-12-26T04:26:09.996Z,77.22
2018-12-26T04:28:39.850Z,77.53
2018-12-26T04:31:09.891Z,77.35
2018-12-26T04:33:39.681Z,77.66
2018-12-26T04:36:09.400Z,77.79
2018-12-26T04:38:39.198Z,78.17
2018-12-26T04:41:08.986Z,77.91
2018-12-26T04:43:39.341Z,77.72
2018-12-26T04:46:09.655Z,77.62
2018-12-26T04:48:39.843Z,78.18
2018-12-26T04:51:09.605Z,78.69
2018-12-26T04:53:41.628Z,79.16
2018-12-26T04:56:11.442Z,78.48
2018-12-26T04:58:41.183Z,78.54
2018-12-26T05:01:11.251Z,78.89
2018-12-26T05:03:41.137Z,78.86
2018-12-26T05:06:10.982Z,78.83
2018-12-26T05:08:40.956Z,78.44
2018-12-26T05:11:12.006Z,79.44
2018-12-26T05:13:41.761Z,79.48
2018-12-26T05:16:11.781Z,79.47
2018-12-26T05:18:44.308Z,79.27
2018-12-26T05:21:14.051Z,79.12
2018-12-26T05:23:44.060Z,79.01
2018-12-26T05:26:14.641Z,80.49
2018-12-26T05:28:44.595Z,79.13
2018-12-26T05:31:14.299Z,79.41
2018-12-26T05:33:44.449Z,80.75
2018-12-26T05:36:14.179Z,79.24
2018-12-26T05:38:44.218Z,80.19
2018-12-26T05:41:13.982Z,79.54
2018-12-26T05:43:44.448Z,80.04
2018-12-26T05:46:14.783Z,79.93
2018-12-26T05:48:44.831Z,79.27
2018-12-26T05:51:14.576Z,80.00
2018-12-26T05:53:44.336Z,80.11
2018-12-26T05:56:15.553Z,79.87
2018-12-26T05:58:45.249Z,80.13
2018-12-26T06:01:15.625Z,80.03
2018-12-26T06:03:47.764Z,80.26
2018-12-26T06:06:17.822Z,80.44
2018-12-26T06:08:47.867Z,80.50
2018-12-26T06:11:19.546Z,81.00
2018-12-26T06:13:49.063Z,80.88
2018-12-26T06:16:18.803Z,80.52
2018-12-26T06:18:48.565Z,81.28
2018-12-26T06:21:18.276Z,80.66
2018-12-26T06:23:48.055Z,80.35
2018-12-26T06:26:17.873Z,80.96
2018-12-26T06:28:47.865Z,80.74
2018-12-26T06:31:17.588Z,80.71
2018-12-26T06:33:49.065Z,81.54
2018-12-26T06:36:19.835Z,81.54
2018-12-26T06:38:49.830Z,80.99
2018-12-26T06:41:20.539Z,81.01
2018-12-26T06:43:50.980Z,80.45
2018-12-26T06:46:21.260Z,80.60
2018-12-26T06:48:51.902Z,80.79
2018-12-26T06:51:21.855Z,81.01
2018-12-26T06:53:53.167Z,81.07
2018-12-26T06:56:23.404Z,81.14
2018-12-26T06:58:56.058Z,80.53
2018-12-26T07:01:25.822Z,80.39
2018-12-26T07:03:56.149Z,80.43
2018-12-26T07:06:25.936Z,80.45
2018-12-26T07:08:56.900Z,81.51
2018-12-26T07:11:29.980Z,82.02
2018-12-26T07:14:31.870Z,81.03
2018-12-26T07:17:03.288Z,80.84
2018-12-26T07:19:35.212Z,81.47
2018-12-26T07:22:04.955Z,80.94
2018-12-26T07:24:37.861Z,81.04
2018-12-26T07:27:08.811Z,81.66
2018-12-26T07:29:39.396Z,81.95
2018-12-26T07:32:09.732Z,81.37
2018-12-26T07:34:42.303Z,81.82
2018-12-26T07:37:14.681Z,80.90
2018-12-26T07:39:44.750Z,81.22
2018-12-26T07:42:14.606Z,81.27
2018-12-26T07:44:44.954Z,81.17
2018-12-26T07:47:15.432Z,81.39
2018-12-26T07:49:45.153Z,81.65
2018-12-26T07:52:16.553Z,81.51
2018-12-26T07:54:51.146Z,80.73
2018-12-26T07:57:21.785Z,82.00
2018-12-26T07:59:52.152Z,81.34
2018-12-26T08:02:22.494Z,81.34
2018-12-26T08:04:55.657Z,81.16
2018-12-26T08:07:25.661Z,80.84
2018-12-26T08:09:55.810Z,81.14
2018-12-26T08:12:25.814Z,81.41
2018-12-26T08:14:55.618Z,81.98
2018-12-26T08:17:28.899Z,81.05
2018-12-26T08:19:59.001Z,81.40
2018-12-26T08:22:29.382Z,80.83
2018-12-26T08:24:59.775Z,81.31
2018-12-26T08:27:30.647Z,81.73
2018-12-26T08:30:00.688Z,81.71
2018-12-26T08:32:31.068Z,82.30
2018-12-26T08:35:01.672Z,82.52
2018-12-26T08:37:31.595Z,81.54
2018-12-26T08:40:01.504Z,81.46
2018-12-26T08:42:31.742Z,81.01
2018-12-26T08:45:02.600Z,81.24
2018-12-26T08:47:32.395Z,81.78
2018-12-26T08:50:02.448Z,81.52
2018-12-26T08:52:33.471Z,82.34
2018-12-26T08:55:04.444Z,81.75
2018-12-26T08:57:35.280Z,81.58
2018-12-26T09:00:07.240Z,81.46
2018-12-26T09:02:37.699Z,82.17
2018-12-26T09:05:07.582Z,81.36
2018-12-26T09:07:37.662Z,81.62
2018-12-26T09:10:09.123Z,82.18
2018-12-26T09:12:39.727Z,82.63
2018-12-26T09:15:09.659Z,81.72
2018-12-26T09:17:45.876Z,81.92
2018-12-26T09:20:45.895Z,82.73
2018-12-26T09:23:16.855Z,81.79
2018-12-26T09:25:57.277Z,82.02
2018-12-26T09:29:04.769Z,81.50
2018-12-26T09:37:55.750Z,82.60
2018-12-26T09:40:35.404Z,82.14
2018-12-26T09:43:28.211Z,82.05
2018-12-26T09:47:07.626Z,81.92
2018-12-26T09:50:03.365Z,82.16
2018-12-26T09:53:07.657Z,81.84
2018-12-26T09:55:45.132Z,83.30
2018-12-26T09:58:31.419Z,82.10
2018-12-26T10:01:35.596Z,82.29
2018-12-26T10:04:52.052Z,82.73
2018-12-26T10:07:43.405Z,81.89
2018-12-26T10:10:47.378Z,82.33
2018-12-26T10:13:26.859Z,81.86
2018-12-26T10:16:39.275Z,81.87
2018-12-26T10:19:46.125Z,81.81
2018-12-26T10:22:11.545Z,81.93
2018-12-26T10:24:46.043Z,82.32
2018-12-26T10:27:19.094Z,83.14
2018-12-26T10:29:48.920Z,82.21
2018-12-26T10:32:18.855Z,82.17
2018-12-26T10:34:50.176Z,82.09
2018-12-26T10:37:21.257Z,82.23
2018-12-26T10:39:51.739Z,82.40
2018-12-26T10:42:22.650Z,82.18
2018-12-26T10:44:55.202Z,82.13
2018-12-26T10:47:25.608Z,82.62
2018-12-26T10:49:56.051Z,82.44
2018-12-26T10:52:28.851Z,82.86
2018-12-26T10:54:58.928Z,82.33
2018-12-26T10:57:29.220Z,82.40
2018-12-26T10:59:59.184Z,83.00
2018-12-26T11:02:30.264Z,82.33
2018-12-26T11:07:57.957Z,82.54
2018-12-26T11:10:28.225Z,82.54
2018-12-26T11:12:58.682Z,82.96
2018-12-26T11:15:28.502Z,82.11
2018-12-26T11:17:58.679Z,82.20
2018-12-26T11:20:29.417Z,83.27
2018-12-26T11:23:00.353Z,82.44
2018-12-26T11:25:30.651Z,82.74
2018-12-26T11:28:01.722Z,82.58
2018-12-26T11:30:31.953Z,82.74
2018-12-26T11:33:02.270Z,82.90
2018-12-26T11:35:34.238Z,82.08
2018-12-26T11:38:04.672Z,82.93
2018-12-26T11:40:34.846Z,83.22
2018-12-26T11:43:04.685Z,82.74
2018-12-26T11:45:34.790Z,82.79
2018-12-26T11:48:04.599Z,83.43
2018-12-26T11:50:34.690Z,83.30
2018-12-26T11:53:04.470Z,83.42
2018-12-26T11:55:34.541Z,82.92
2018-12-26T11:58:04.286Z,83.28
2018-12-26T12:00:34.098Z,82.46
2018-12-26T12:03:04.204Z,82.54
2018-12-26T12:05:38.499Z,83.32
2018-12-26T12:08:15.231Z,83.50
2018-12-26T12:10:50.177Z,83.13
2018-12-26T12:13:21.987Z,82.95
2018-12-26T12:15:53.772Z,82.62
2018-12-26T12:18:26.273Z,83.92
2018-12-26T12:20:56.000Z,83.43
2018-12-26T12:23:26.453Z,82.89
2018-12-26T12:25:56.860Z,83.16
2018-12-26T12:28:26.821Z,84.47
2018-12-26T12:30:56.658Z,84.63
2018-12-26T12:33:26.431Z,84.23
2018-12-26T12:35:56.543Z,83.87
2018-12-26T12:38:26.642Z,84.01
2018-12-26T12:40:56.681Z,83.36
2018-12-26T12:43:26.589Z,83.07
2018-12-26T12:45:56.707Z,82.99
2018-12-26T12:48:27.333Z,83.33
2018-12-26T12:50:57.088Z,83.34
2018-12-26T12:53:27.340Z,83.88
2018-12-26T12:55:58.054Z,83.61
2018-12-26T12:58:28.325Z,83.09
2018-12-26T13:00:58.549Z,83.60
2018-12-26T13:03:29.451Z,84.61
2018-12-26T13:06:11.660Z,85.26
2018-12-26T13:08:42.014Z,84.45
2018-12-26T13:11:22.385Z,84.33
2018-12-26T13:13:52.031Z,83.23
2018-12-26T13:16:22.559Z,84.56
2018-12-26T13:18:53.843Z,83.44
2018-12-26T13:21:24.111Z,83.50
2018-12-26T13:23:53.959Z,83.60
2018-12-26T13:26:23.732Z,83.67
2018-12-26T13:28:54.302Z,83.39
2018-12-26T13:31:24.870Z,84.10
2018-12-26T13:33:54.581Z,83.87
2018-12-26T13:36:24.502Z,83.68
2018-12-26T13:38:54.251Z,83.68
2018-12-26T13:41:24.337Z,84.06
2018-12-26T13:43:54.728Z,83.95
2018-12-26T13:46:33.570Z,84.60
2018-12-26T13:48:58.528Z,84.45
2018-12-26T13:51:28.888Z,83.98
2018-12-26T13:53:59.502Z,83.83
2018-12-26T13:56:29.263Z,83.96
2018-12-26T13:58:59.056Z,84.16
2018-12-26T14:01:28.869Z,84.16
2018-12-26T14:03:58.938Z,85.33
2018-12-26T14:06:28.975Z,84.64
2018-12-26T14:08:58.823Z,84.29
2018-12-26T14:11:30.599Z,84.45
2018-12-26T14:14:01.010Z,84.75
2018-12-26T14:16:30.796Z,85.22
2018-12-26T14:19:01.127Z,84.18
2018-12-26T14:21:30.859Z,84.27
2018-12-26T14:24:01.543Z,84.11
2018-12-26T14:26:31.597Z,84.92
2018-12-26T14:29:01.417Z,84.76
2018-12-26T14:31:31.808Z,83.52
2018-12-26T14:34:01.951Z,84.12
2018-12-26T14:36:32.051Z,83.46
2018-12-26T14:39:03.052Z,84.12
2018-12-26T14:41:33.636Z,84.00
2018-12-26T14:44:03.992Z,84.10
2018-12-26T14:46:33.801Z,84.03
2018-12-26T14:49:03.538Z,84.03
2018-12-26T14:51:33.346Z,84.13
2018-12-26T14:54:03.533Z,83.45
2018-12-26T14:56:33.578Z,84.63
2018-12-26T14:59:03.348Z,84.85
2018-12-26T15:01:33.450Z,85.03
2018-12-26T15:04:03.755Z,84.94
2018-12-26T15:06:33.935Z,83.91
2018-12-26T15:09:05.574Z,83.48
2018-12-26T15:11:36.601Z,84.15
2018-12-26T15:14:06.370Z,85.10
2018-12-26T15:16:36.762Z,84.66
2018-12-26T15:19:17.727Z,83.80
2018-12-26T15:21:47.514Z,84.74
2018-12-26T15:24:17.667Z,83.68
2018-12-26T15:26:48.020Z,84.63
2018-12-26T15:29:17.827Z,84.23
2018-12-26T15:31:47.752Z,85.60
2018-12-26T15:34:17.836Z,83.84
2018-12-26T15:36:48.177Z,83.45
2018-12-26T15:39:18.016Z,83.86
2018-12-26T15:41:48.366Z,83.95
2018-12-26T15:44:18.399Z,84.01
2018-12-26T15:46:48.407Z,83.80
2018-12-26T15:49:18.410Z,84.06
2018-12-26T15:51:48.215Z,84.12
2018-12-26T15:54:18.319Z,85.19
2018-12-26T15:56:49.036Z,84.68
2018-12-26T15:59:18.811Z,84.84
2018-12-26T16:01:48.675Z,84.05
2018-12-26T16:04:18.417Z,83.79
2018-12-26T16:06:48.808Z,84.35
2018-12-26T16:09:18.607Z,83.91
2018-12-26T16:11:49.214Z,84.64
2018-12-26T16:14:19.528Z,84.60
2018-12-26T16:16:49.396Z,84.67
2018-12-26T16:19:21.138Z,84.36
2018-12-26T16:21:51.130Z,84.77
2018-12-26T16:24:20.983Z,84.12
2018-12-26T16:26:50.999Z,84.75
2018-12-26T16:29:21.608Z,84.54
2018-12-26T16:31:52.006Z,84.77
2018-12-26T16:34:22.735Z,84.77
2018-12-26T16:36:53.731Z,84.98
2018-12-26T16:39:23.927Z,85.29
2018-12-26T16:41:54.412Z,85.57
2018-12-26T16:44:24.714Z,84.96
2018-12-26T16:46:55.328Z,85.47
2018-12-26T16:49:25.186Z,85.37
2018-12-26T16:51:55.324Z,84.60
2018-12-26T16:54:25.747Z,83.89
2018-12-26T16:56:55.575Z,85.18
2018-12-26T16:59:26.742Z,86.14
2018-12-26T17:01:58.802Z,85.32
2018-12-26T17:04:29.973Z,86.57
2018-12-26T17:07:00.435Z,85.38
2018-12-26T17:09:30.544Z,86.80
2018-12-26T17:12:00.980Z,86.62
2018-12-26T17:14:31.551Z,86.97
2018-12-26T17:17:04.799Z,86.81
2018-12-26T17:19:34.967Z,86.04
2018-12-26T17:22:07.134Z,85.71
2018-12-26T17:24:38.192Z,87.19
2018-12-26T17:27:09.098Z,87.18
2018-12-26T17:29:40.483Z,86.65
2018-12-26T17:32:11.130Z,86.93
2018-12-26T17:35:20.648Z,87.32
2018-12-26T17:37:51.074Z,86.91
2018-12-26T17:40:21.129Z,85.90
2018-12-26T17:42:50.940Z,85.85
2018-12-26T17:45:24.299Z,86.49
2018-12-26T17:47:55.962Z,85.03
2018-12-26T17:50:47.456Z,85.90
2018-12-26T17:54:01.992Z,85.47
2018-12-26T17:57:08.441Z,86.49
2018-12-26T18:00:53.411Z,85.41
2018-12-26T18:03:23.316Z,86.37
2018-12-26T18:05:53.177Z,86.37
2018-12-26T18:08:23.092Z,84.93
2018-12-26T18:10:53.409Z,85.63
2018-12-26T18:13:24.193Z,85.24
2018-12-26T18:15:54.278Z,86.97
2018-12-26T18:18:24.693Z,85.25
2018-12-26T18:20:54.747Z,85.28
2018-12-26T18:23:24.870Z,85.65
2018-12-26T18:25:54.974Z,84.84
2018-12-26T18:28:24.760Z,85.95
2018-12-26T18:30:55.228Z,85.37
2018-12-26T18:33:25.434Z,85.11
2018-12-26T18:35:55.529Z,84.68
2018-12-26T18:38:25.745Z,84.96
2018-12-26T18:40:55.557Z,85.04
2018-12-26T18:43:25.406Z,84.83
2018-12-26T18:45:55.434Z,85.42
2018-12-26T18:48:25.537Z,86.50
2018-12-26T18:50:55.300Z,86.22
2018-12-26T18:53:25.318Z,86.73
2018-12-26T18:55:57.560Z,87.49
2018-12-26T18:58:27.919Z,88.12
2018-12-26T19:00:58.428Z,88.41
2018-12-26T19:03:29.575Z,87.44
2018-12-26T19:06:00.154Z,87.41
2018-12-26T19:08:31.093Z,86.59
2018-12-26T19:11:01.010Z,86.36
2018-12-26T19:13:31.086Z,86.24
2018-12-26T19:16:01.243Z,87.94
2018-12-26T19:18:31.391Z,87.94
2018-12-26T19:21:02.190Z,87.89
2018-12-26T19:23:32.951Z,88.17
2018-12-26T19:26:03.501Z,87.22
2018-12-26T19:28:33.361Z,85.66
2018-12-26T19:31:03.642Z,87.22
2018-12-26T19:33:33.508Z,87.83
2018-12-26T19:36:03.947Z,86.96
2018-12-26T19:38:34.344Z,87.01
2018-12-26T19:41:04.370Z,88.12
2018-12-26T19:43:34.206Z,88.00
2018-12-26T19:46:04.135Z,87.15
2018-12-26T19:48:34.179Z,87.20
2018-12-26T19:51:05.164Z,87.53
2018-12-26T19:53:35.812Z,87.08
2018-12-26T19:56:06.236Z,87.16
2018-12-26T19:58:37.038Z,86.33
2018-12-26T20:01:07.274Z,86.13
2018-12-26T20:03:37.610Z,87.58
2018-12-26T20:06:07.621Z,87.15
2018-12-26T20:08:37.358Z,85.78
2018-12-26T20:11:07.612Z,87.06
2018-12-26T20:13:37.380Z,88.38
2018-12-26T20:16:07.547Z,87.48
2018-12-26T20:18:37.720Z,87.16
2018-12-26T20:21:07.451Z,87.86
2018-12-26T20:23:37.614Z,87.55
2018-12-26T20:26:08.188Z,87.15
2018-12-26T20:28:37.941Z,86.66
2018-12-26T20:31:08.401Z,85.96
2018-12-26T20:33:38.729Z,86.96
2018-12-26T20:36:25.075Z,86.80
2018-12-26T20:38:54.851Z,86.78
2018-12-26T20:41:25.422Z,87.98
2018-12-26T20:43:56.003Z,86.79
2018-12-26T20:46:26.495Z,86.64
2018-12-26T20:48:56.538Z,88.08
2018-12-26T20:51:26.327Z,86.71
2018-12-26T20:53:56.356Z,87.05
2018-12-26T20:56:27.250Z,87.36
2018-12-26T20:59:12.365Z,86.25
2018-12-26T21:01:43.020Z,87.12
2018-12-26T21:04:13.589Z,88.15
2018-12-26T21:06:44.413Z,87.31
2018-12-26T21:09:14.748Z,86.18
2018-12-26T21:11:44.974Z,86.57
2018-12-26T21:14:15.034Z,86.89
2018-12-26T21:16:45.163Z,87.14
2018-12-26T21:19:15.362Z,86.05
2018-12-26T21:21:45.278Z,86.38
2018-12-26T21:24:15.176Z,87.33
2018-12-26T21:26:44.961Z,87.01
2018-12-26T21:29:15.012Z,86.72
2018-12-26T21:31:45.076Z,86.89
2018-12-26T21:34:15.019Z,85.73
2018-12-26T21:36:44.935Z,85.06
2018-12-26T21:39:15.259Z,85.62
2018-12-26T21:41:45.075Z,86.25
2018-12-26T21:44:15.627Z,86.36
2018-12-26T21:46:45.717Z,87.40
2018-12-26T21:49:15.536Z,86.62
2018-12-26T21:51:46.808Z,86.39
2018-12-26T21:54:17.221Z,86.02
2018-12-26T21:56:47.246Z,85.91
2018-12-26T21:59:17.978Z,86.00
2018-12-26T22:01:47.634Z,86.20
2018-12-26T22:04:17.911Z,86.34
2018-12-26T22:06:48.001Z,85.58
2018-12-26T22:09:18.040Z,86.27
2018-12-26T22:11:48.779Z,85.37
2018-12-26T22:14:19.273Z,85.50
2018-12-26T22:16:49.956Z,85.80
2018-12-26T22:19:20.194Z,86.63
2018-12-26T22:21:50.205Z,87.00
2018-12-26T22:24:19.941Z,85.71
2018-12-26T22:26:49.827Z,86.21
2018-12-26T22:29:20.259Z,86.94
2018-12-26T22:31:50.115Z,86.50
2018-12-26T22:34:21.552Z,85.69
2018-12-26T22:36:51.749Z,85.66
2018-12-26T22:39:21.780Z,85.00
2018-12-26T22:41:51.970Z,85.48
2018-12-26T22:44:27.741Z,86.53
2018-12-26T22:46:53.499Z,85.19
2018-12-26T22:49:23.609Z,86.06
2018-12-26T22:51:53.569Z,85.05
2018-12-26T22:54:23.646Z,85.70
2018-12-26T22:56:54.183Z,85.18
2018-12-26T22:59:23.924Z,85.47
2018-12-26T23:01:53.979Z,85.35
2018-12-26T23:04:24.215Z,85.32
2018-12-26T23:06:54.225Z,87.32
2018-12-26T23:09:24.287Z,86.96
2018-12-26T23:11:54.169Z,85.54
2018-12-26T23:14:24.269Z,85.64
2018-12-26T23:16:54.363Z,86.46
2018-12-26T23:19:24.197Z,86.63
2018-12-26T23:21:54.717Z,88.33
2018-12-26T23:24:24.688Z,88.28
2018-12-26T23:26:55.239Z,88.03
2018-12-26T23:29:24.998Z,86.20
2018-12-26T23:31:54.927Z,86.37
2018-12-26T23:34:25.062Z,87.98
2018-12-26T23:36:54.846Z,86.71
2018-12-26T23:39:25.308Z,87.60
2018-12-26T23:41:55.012Z,87.01
2018-12-26T23:44:25.233Z,87.28
2018-12-26T23:46:55.009Z,87.29
2018-12-26T23:49:25.012Z,87.71
2018-12-26T23:51:55.021Z,88.48
2018-12-26T23:54:25.329Z,87.31
2018-12-26T23:56:55.482Z,88.03
2018-12-26T23:59:25.220Z,88.24
